Time;durP1;ratioP1;P1;durP2;ratioP2;P2;SDS_P1;SDS_P2;PMS_P1;PMS_P2;Temp;Humidity;BMP_temperature;BMP_pressure;BME280_temperature;BME280_humidity;BME280_pressure;Samples;Min_cycle;Max_cycle;Signal;HPM_P1;HPM_P2
2021/12/21 00:01:15;;;;;;;22.33;8.50;;;;;;;0.22;84.89;102757.66;5051039;28;20108;-58
2021/12/21 00:03:40;;;;;;;20.47;9.63;;;;;;;0.18;84.90;102761.28;5060997;28;20040;-58
2021/12/21 00:06:06;;;;;;;19.30;9.80;;;;;;;0.15;84.75;102760.56;5058281;28;20032;-58
2021/12/21 00:08:31;;;;;;;21.57;9.63;;;;;;;0.10;84.61;102763.34;5055768;28;20522;-58
2021/12/21 00:10:58;;;;;;;21.47;9.07;;;;;;;0.09;84.66;102755.56;5064360;28;20020;-58
2021/12/21 00:13:37;;;;;;;23.50;9.43;;;;;;;0.10;84.77;102757.25;5059789;28;20063;-59
2021/12/21 00:16:29;;;;;;;20.40;8.90;;;;;;;0.07;84.77;102760.00;5055612;28;20430;-58
2021/12/21 00:23:57;;;;;;;19.77;9.37;;;;;;;-0.03;84.83;102752.47;5058016;28;20066;-58
2021/12/21 00:26:23;;;;;;;23.23;9.47;;;;;;;-0.01;84.90;102747.19;5063013;28;20110;-57
2021/12/21 00:28:59;;;;;;;20.60;9.60;;;;;;;-0.03;85.01;102746.38;5059624;28;20512;-58
2021/12/21 00:31:28;;;;;;;25.53;10.00;;;;;;;-0.03;85.12;102742.00;5054091;28;20112;-59
2021/12/21 00:33:53;;;;;;;20.00;9.67;;;;;;;-0.07;85.25;102734.34;5055182;28;20070;-58
2021/12/21 00:36:21;;;;;;;24.37;10.07;;;;;;;-0.03;85.40;102735.94;5057458;28;20032;-58
2021/12/21 00:38:47;;;;;;;23.47;9.30;;;;;;;-0.12;85.37;102728.44;5057100;28;20033;-58
2021/12/21 00:41:14;;;;;;;26.53;9.97;;;;;;;-0.07;85.31;102736.97;5059076;28;20503;-58
2021/12/21 00:43:39;;;;;;;25.90;9.73;;;;;;;-0.10;85.40;102730.09;5052860;28;20071;-58
2021/12/21 00:46:05;;;;;;;22.67;9.60;;;;;;;-0.13;85.42;102731.97;5055093;28;20020;-58
2021/12/21 00:48:32;;;;;;;24.17;10.10;;;;;;;-0.17;85.43;102735.59;5054292;28;20040;-58
2021/12/21 00:51:00;;;;;;;22.13;10.30;;;;;;;-0.21;85.36;102726.19;5064501;28;20059;-58
2021/12/21 00:53:27;;;;;;;27.50;10.40;;;;;;;-0.22;85.32;102738.38;5058707;28;20033;-58
2021/12/21 00:55:53;;;;;;;23.00;10.60;;;;;;;-0.22;85.79;102734.91;5057532;28;20025;-58
2021/12/21 00:58:18;;;;;;;23.67;10.43;;;;;;;-0.24;85.34;102742.81;5057705;28;20033;-58
2021/12/21 01:00:43;;;;;;;23.27;10.80;;;;;;;-0.24;85.56;102736.75;5057836;28;20608;-58
2021/12/21 01:03:12;;;;;;;29.97;11.33;;;;;;;-0.28;85.52;102737.75;5057972;28;20029;-58
2021/12/21 01:05:46;;;;;;;30.27;11.13;;;;;;;-0.32;85.64;102739.59;5060146;28;20353;-58
2021/12/21 01:08:17;;;;;;;26.47;10.33;;;;;;;-0.38;85.46;102743.28;5057463;28;20032;-58
2021/12/21 01:15:55;;;;;;;21.30;9.70;;;;;;;-0.46;85.67;102742.69;5061728;28;20040;-58
2021/12/21 01:18:26;;;;;;;22.43;9.23;;;;;;;-0.47;85.62;102730.56;5059615;28;20055;-58
2021/12/21 01:21:17;;;;;;;23.47;10.27;;;;;;;-0.52;85.56;102731.63;5054605;28;20021;-58
2021/12/21 01:31:26;;;;;;;22.87;9.67;;;;;;;-0.49;85.83;102728.91;5067295;28;20390;-58
2021/12/21 01:34:22;;;;;;;19.63;9.13;;;;;;;-0.49;85.81;102732.38;5051725;28;20544;-58
2021/12/21 01:42:00;;;;;;;21.33;8.77;;;;;;;-0.53;85.73;102715.13;5068688;28;20037;-58
2021/12/21 01:49:41;;;;;;;18.53;8.33;;;;;;;-0.62;85.69;102725.84;5063747;28;20570;-58
2021/12/21 01:52:10;;;;;;;22.73;9.57;;;;;;;-0.69;85.53;102722.59;5058235;28;20103;-58
2021/12/21 01:54:36;;;;;;;20.33;8.43;;;;;;;-0.75;85.40;102716.75;5036290;28;20496;-58
2021/12/21 01:57:03;;;;;;;20.53;9.40;;;;;;;-0.80;85.49;102719.50;5058106;28;20020;-58
2021/12/21 01:59:29;;;;;;;24.80;10.73;;;;;;;-0.83;85.68;102718.78;5056971;28;20111;-58
2021/12/21 02:01:55;;;;;;;20.27;8.20;;;;;;;-0.84;85.71;102717.06;5057410;28;20103;-58
2021/12/21 02:04:20;;;;;;;18.10;9.10;;;;;;;-0.85;86.02;102717.97;5055387;28;20032;-58
2021/12/21 02:06:48;;;;;;;24.00;8.67;;;;;;;-0.86;85.96;102713.66;5057794;28;20025;-58
2021/12/21 02:09:14;;;;;;;22.40;8.73;;;;;;;-0.87;85.90;102709.31;5058206;28;20102;-58
2021/12/21 02:11:39;;;;;;;24.23;9.17;;;;;;;-0.84;86.05;102698.81;5060897;28;20426;-58
2021/12/21 02:14:08;;;;;;;22.67;9.20;;;;;;;-0.80;86.03;102697.78;5059330;28;20110;-58
2021/12/21 02:16:47;;;;;;;20.23;9.30;;;;;;;-0.83;86.07;102690.94;5056793;28;20119;-58
2021/12/21 02:19:23;;;;;;;21.53;9.53;;;;;;;-0.80;85.90;102696.03;5054437;28;20029;-58
2021/12/21 02:21:53;;;;;;;17.50;8.50;;;;;;;-0.78;86.02;102699.44;5059577;28;20438;-58
2021/12/21 02:24:23;;;;;;;17.52;8.35;;;;;;;-0.82;85.80;102687.41;5062036;28;20028;-58
2021/12/21 02:27:06;;;;;;;19.37;9.10;;;;;;;-0.87;85.94;102691.06;5058977;28;20116;-58
2021/12/21 02:29:34;;;;;;;21.43;9.17;;;;;;;-0.90;85.84;102693.78;5059635;28;20029;-58
2021/12/21 02:31:59;;;;;;;19.43;9.03;;;;;;;-0.93;85.88;102700.78;5060794;28;20574;-58
2021/12/21 02:34:25;;;;;;;28.63;9.57;;;;;;;-0.96;85.92;102697.44;5054478;28;20029;-58
2021/12/21 02:36:53;;;;;;;20.20;9.47;;;;;;;-0.96;85.94;102706.13;5053767;28;20482;-58
2021/12/21 02:39:19;;;;;;;21.87;9.47;;;;;;;-0.98;85.88;102709.69;5052817;28;20021;-58
2021/12/21 02:41:45;;;;;;;24.87;9.50;;;;;;;-0.98;85.86;102696.63;5061207;28;20511;-58
2021/12/21 02:44:12;;;;;;;22.57;9.83;;;;;;;-0.96;85.86;102695.69;5055469;28;20573;-58
2021/12/21 02:46:41;;;;;;;21.80;9.53;;;;;;;-0.99;85.99;102698.41;5059777;28;20067;-58
2021/12/21 02:49:07;;;;;;;21.13;9.68;;;;;;;-0.95;85.89;102693.94;5058653;28;20037;-58
2021/12/21 02:51:33;;;;;;;23.90;10.27;;;;;;;-0.97;85.93;102686.16;5059136;28;20081;-58
2021/12/21 02:53:58;;;;;;;21.47;9.90;;;;;;;-0.98;85.97;102686.22;5058002;28;20032;-58
2021/12/21 02:56:23;;;;;;;29.33;11.00;;;;;;;-0.99;86.05;102689.72;5062157;28;20075;-58
2021/12/21 02:58:49;;;;;;;25.03;11.27;;;;;;;-1.01;86.11;102692.38;5058846;28;20021;-58
2021/12/21 03:01:15;;;;;;;29.07;10.87;;;;;;;-0.99;86.25;102687.97;5061106;28;20388;-58
2021/12/21 03:03:41;;;;;;;24.67;11.27;;;;;;;-1.02;86.20;102680.25;5061766;28;20043;-58
2021/12/21 03:06:12;;;;;;;23.20;11.20;;;;;;;-1.00;86.07;102685.41;5061636;28;20397;-58
2021/12/21 03:08:41;;;;;;;24.87;11.73;;;;;;;-1.02;86.11;102682.00;5066048;28;20074;-58
2021/12/21 03:11:15;;;;;;;25.65;11.30;;;;;;;-1.07;86.09;102682.16;5056633;28;20032;-58
2021/12/21 03:16:17;;;;;;;25.03;11.17;;;;;;;-1.19;85.77;102679.09;5052770;28;20280;-58
2021/12/21 03:18:43;;;;;;;25.43;11.10;;;;;;;-1.20;85.65;102677.38;5055551;28;20172;-58
2021/12/21 03:21:08;;;;;;;27.63;11.73;;;;;;;-1.20;85.85;102680.00;5055426;28;20111;-58
2021/12/21 03:23:33;;;;;;;20.77;10.60;;;;;;;-1.23;85.81;102673.13;5060455;28;20047;-58
2021/12/21 03:25:59;;;;;;;23.80;11.00;;;;;;;-1.22;85.99;102674.81;5063011;28;20543;-58
2021/12/21 03:28:24;;;;;;;22.67;10.13;;;;;;;-1.27;86.17;102674.97;5055732;28;20024;-58
2021/12/21 03:30:50;;;;;;;22.50;10.53;;;;;;;-1.26;86.10;102678.44;5059666;28;20020;-58
2021/12/21 03:33:15;;;;;;;24.30;9.97;;;;;;;-1.29;86.09;102675.94;5061762;28;20024;-58
2021/12/21 03:35:40;;;;;;;22.37;10.43;;;;;;;-1.32;86.08;102676.88;5061759;28;20518;-58
2021/12/21 03:38:06;;;;;;;27.73;11.23;;;;;;;-1.35;86.05;102671.78;5076292;28;20051;-58
2021/12/21 03:40:33;;;;;;;27.97;10.80;;;;;;;-1.38;85.88;102669.28;5058868;28;20021;-58
2021/12/21 03:43:00;;;;;;;24.37;11.17;;;;;;;-1.38;86.03;102681.44;5057896;28;20064;-58
2021/12/21 03:45:30;;;;;;;23.53;11.00;;;;;;;-1.38;86.11;102676.25;5059905;28;20029;-58
2021/12/21 03:47:55;;;;;;;25.85;11.10;;;;;;;-1.38;86.10;102673.63;5061411;28;20108;-58
2021/12/21 03:50:21;;;;;;;27.80;10.67;;;;;;;-1.40;86.06;102667.63;5053784;28;20032;-58
2021/12/21 03:52:47;;;;;;;27.20;10.60;;;;;;;-1.42;86.10;102667.66;5060507;28;20025;-58
2021/12/21 03:55:13;;;;;;;21.93;10.73;;;;;;;-1.44;85.94;102677.28;5055533;28;20428;-58
2021/12/21 03:57:38;;;;;;;28.93;10.70;;;;;;;-1.44;85.98;102668.63;5058412;28;20491;-60
2021/12/21 04:00:06;;;;;;;19.13;9.77;;;;;;;-1.48;86.04;102675.66;5051929;28;20083;-60
2021/12/21 04:02:32;;;;;;;29.87;10.87;;;;;;;-1.52;86.06;102668.84;5057316;28;20032;-60
2021/12/21 04:04:59;;;;;;;25.27;11.00;;;;;;;-1.51;86.19;102669.69;5057914;28;20028;-60
2021/12/21 04:07:24;;;;;;;24.47;11.00;;;;;;;-1.52;86.20;102662.78;5060186;28;20028;-60
2021/12/21 04:09:50;;;;;;;24.33;11.17;;;;;;;-1.53;86.26;102661.94;5056649;28;20044;-60
2021/12/21 04:12:15;;;;;;;26.90;10.97;;;;;;;-1.53;86.33;102661.06;5063239;28;20020;-60
2021/12/21 04:14:41;;;;;;;26.67;11.60;;;;;;;-1.53;86.43;102666.28;5050245;28;20124;-60
2021/12/21 04:17:06;;;;;;;27.60;11.60;;;;;;;-1.57;86.37;102655.97;5052315;28;20017;-60
2021/12/21 04:19:32;;;;;;;26.10;11.70;;;;;;;-1.58;86.32;102656.88;5056610;28;20499;-60
2021/12/21 04:21:57;;;;;;;25.83;11.13;;;;;;;-1.60;86.39;102665.63;5053586;28;20437;-60
2021/12/21 04:24:22;;;;;;;32.37;12.40;;;;;;;-1.60;86.30;102663.03;5055988;28;20044;-60
2021/12/21 04:26:48;;;;;;;27.90;11.60;;;;;;;-1.63;86.44;102661.38;5064206;28;20060;-60
2021/12/21 04:29:14;;;;;;;24.67;11.17;;;;;;;-1.62;86.52;102664.81;5055478;28;20029;-60
2021/12/21 04:31:39;;;;;;;28.20;12.00;;;;;;;-1.62;86.43;102662.22;5058555;28;20100;-60
2021/12/21 04:34:05;;;;;;;25.77;11.13;;;;;;;-1.64;86.47;102664.88;5056478;28;20104;-60
2021/12/21 04:36:30;;;;;;;29.33;12.80;;;;;;;-1.61;86.29;102666.53;5059431;28;20383;-60
2021/12/21 04:38:58;;;;;;;25.13;11.37;;;;;;;-1.61;86.63;102659.56;5053501;28;20495;-60
2021/12/21 04:41:27;;;;;;;25.57;11.97;;;;;;;-1.59;86.66;102667.34;5062023;28;20032;-60
2021/12/21 04:43:54;;;;;;;27.13;11.43;;;;;;;-1.62;86.63;102665.69;5055168;28;20511;-60
2021/12/21 04:46:19;;;;;;;27.43;11.47;;;;;;;-1.60;86.70;102656.06;5048924;28;20024;-60
2021/12/21 04:48:45;;;;;;;25.40;11.90;;;;;;;-1.59;86.78;102649.94;5053094;28;20412;-60
2021/12/21 04:51:11;;;;;;;27.37;12.07;;;;;;;-1.59;86.76;102652.56;5061665;28;20024;-60
2021/12/21 04:53:36;;;;;;;27.83;12.17;;;;;;;-1.57;86.80;102649.91;5064953;28;20065;-60
2021/12/21 04:56:02;;;;;;;23.40;11.73;;;;;;;-1.58;86.88;102648.19;5057540;28;20032;-60
2021/12/21 04:58:28;;;;;;;21.30;11.10;;;;;;;-1.58;86.82;102653.41;5058002;28;20099;-60
2021/12/21 05:00:54;;;;;;;26.30;12.13;;;;;;;-1.63;86.72;102650.94;5055916;28;20120;-60
2021/12/21 05:03:19;;;;;;;32.73;11.80;;;;;;;-1.66;86.71;102643.22;5062289;28;20674;-60
2021/12/21 05:05:45;;;;;;;30.17;11.93;;;;;;;-1.64;86.67;102641.44;5059354;28;20029;-60
2021/12/21 05:08:18;;;;;;;28.83;12.53;;;;;;;-1.63;86.62;102643.13;5062929;28;20040;-60
2021/12/21 05:10:48;;;;;;;31.93;13.20;;;;;;;-1.61;86.75;102643.09;5067065;28;20505;-60
2021/12/21 05:13:15;;;;;;;27.43;12.77;;;;;;;-1.58;86.88;102638.63;5067734;28;20077;-60
2021/12/21 05:15:42;;;;;;;22.63;11.90;;;;;;;-1.57;87.07;102640.34;5064846;28;20396;-60
2021/12/21 05:18:08;;;;;;;27.63;11.93;;;;;;;-1.54;87.01;102655.00;5053605;28;20032;-60
2021/12/21 05:20:33;;;;;;;29.57;12.33;;;;;;;-1.57;86.99;102645.53;5053494;28;20077;-60
2021/12/21 05:22:58;;;;;;;26.30;12.40;;;;;;;-1.57;86.79;102655.13;5057012;28;20057;-60
2021/12/21 05:25:24;;;;;;;26.10;12.60;;;;;;;-1.59;86.91;102651.72;5057088;28;20208;-60
2021/12/21 05:27:49;;;;;;;26.70;12.53;;;;;;;-1.59;86.76;102662.13;5054167;28;20064;-60
2021/12/21 05:30:15;;;;;;;27.83;12.80;;;;;;;-1.60;86.91;102658.66;5062415;28;20025;-60
2021/12/21 05:32:40;;;;;;;30.13;12.50;;;;;;;-1.59;86.92;102659.53;5061295;28;20090;-60
2021/12/21 05:35:07;;;;;;;30.27;12.43;;;;;;;-1.60;86.85;102655.22;5057810;28;20029;-60
2021/12/21 05:37:33;;;;;;;22.40;12.07;;;;;;;-1.63;86.91;102650.09;5059120;28;20553;-59
2021/12/21 05:40:11;;;;;;;25.50;12.57;;;;;;;-1.65;86.82;102654.50;5062455;28;20073;-60
2021/12/21 05:42:36;;;;;;;28.70;12.30;;;;;;;-1.68;86.73;102658.06;5065257;28;20446;-60
2021/12/21 05:45:03;;;;;;;31.43;13.40;;;;;;;-1.70;86.75;102661.63;5066585;28;20479;-60
2021/12/21 05:47:28;;;;;;;33.30;13.40;;;;;;;-1.70;86.86;102654.66;5057361;28;20265;-60
2021/12/21 05:49:54;;;;;;;28.40;12.77;;;;;;;-1.71;86.92;102652.09;5056071;28;20036;-60
2021/12/21 05:52:19;;;;;;;28.77;12.67;;;;;;;-1.76;86.72;102654.81;5066463;28;20053;-60
2021/12/21 05:54:44;;;;;;;28.53;13.23;;;;;;;-1.77;86.94;102660.06;5058503;28;20047;-60
2021/12/21 05:57:10;;;;;;;27.60;12.77;;;;;;;-1.81;86.69;102650.66;5061268;28;20114;-60
2021/12/21 05:59:35;;;;;;;32.23;13.07;;;;;;;-1.82;86.62;102651.56;5053239;28;20395;-60
2021/12/21 06:02:01;;;;;;;24.33;12.50;;;;;;;-1.81;86.73;102659.31;5038974;28;20017;-60
2021/12/21 06:04:26;;;;;;;31.37;12.73;;;;;;;-1.81;86.84;102653.25;5037734;28;20048;-60
2021/12/21 06:06:51;;;;;;;26.63;12.10;;;;;;;-1.92;86.90;102638.81;5054814;28;20021;-60
2021/12/21 06:09:17;;;;;;;25.83;13.20;;;;;;;-1.82;86.80;102657.63;5058204;28;20200;-60
2021/12/21 06:12:02;;;;;;;24.63;12.27;;;;;;;-1.80;86.82;102654.97;5059830;28;20035;-60
2021/12/21 06:14:56;;;;;;;28.20;13.17;;;;;;;-1.81;86.67;102651.50;5065043;28;20040;-60
2021/12/21 06:25:36;;;;;;;27.17;12.83;;;;;;;-1.84;86.65;102661.16;5059054;28;20040;-60
2021/12/21 06:28:05;;;;;;;27.27;12.63;;;;;;;-1.83;86.88;102660.25;5055795;28;20421;-60
2021/12/21 06:30:30;;;;;;;30.77;12.43;;;;;;;-1.87;86.98;102660.34;5057195;28;20476;-60
2021/12/21 06:32:56;;;;;;;30.47;12.40;;;;;;;-1.85;86.93;102644.69;5057292;28;20078;-60
2021/12/21 06:35:21;;;;;;;28.90;12.73;;;;;;;-1.84;86.98;102651.59;5054838;28;20024;-60
2021/12/21 06:37:47;;;;;;;28.03;13.27;;;;;;;-1.88;86.77;102645.63;5065231;28;20370;-60
2021/12/21 06:40:12;;;;;;;27.83;13.27;;;;;;;-1.91;86.88;102643.13;5060591;28;20078;-60
2021/12/21 06:42:39;;;;;;;24.73;12.03;;;;;;;-1.94;86.60;102647.59;5059566;28;20111;-60
2021/12/21 06:45:12;;;;;;;25.53;12.10;;;;;;;-1.97;86.63;102651.13;5066679;28;20064;-60
2021/12/21 06:53:06;;;;;;;23.10;12.17;;;;;;;-2.02;86.62;102665.19;5054337;28;20344;-60
2021/12/21 06:55:31;;;;;;;30.53;13.40;;;;;;;-2.01;86.77;102651.28;5052062;28;20029;-60
2021/12/21 06:57:56;;;;;;;28.33;12.90;;;;;;;-2.02;86.78;102657.38;5051398;28;20413;-60
2021/12/21 07:00:22;;;;;;;28.90;12.97;;;;;;;-2.00;86.82;102650.38;5054890;28;20024;-60
2021/12/21 07:02:47;;;;;;;28.13;13.20;;;;;;;-2.02;86.86;102657.38;5053974;28;20040;-60
2021/12/21 07:05:13;;;;;;;33.93;13.50;;;;;;;-2.02;86.65;102652.16;5055627;28;20024;-60
2021/12/21 07:07:39;;;;;;;23.77;12.57;;;;;;;-2.01;86.94;102659.94;5053088;28;20535;-60
2021/12/21 07:10:09;;;;;;;25.50;12.93;;;;;;;-2.00;86.87;102660.78;5055751;28;20029;-60
2021/12/21 07:20:21;;;;;;;30.47;12.67;;;;;;;-2.03;86.96;102668.66;5050757;28;20111;-60
2021/12/21 07:22:46;;;;;;;25.77;12.70;;;;;;;-2.06;86.75;102664.41;5050400;28;20155;-60
2021/12/21 07:25:12;;;;;;;24.57;12.27;;;;;;;-2.11;86.58;102668.88;5056955;28;20033;-60
2021/12/21 07:27:37;;;;;;;24.10;12.27;;;;;;;-2.21;86.35;102676.13;5059223;28;20468;-60
2021/12/21 07:30:05;;;;;;;27.77;12.80;;;;;;;-2.23;86.18;102670.09;5051330;28;20106;-60
2021/12/21 07:32:30;;;;;;;28.03;12.47;;;;;;;-2.22;86.27;102670.97;5060006;28;21308;-61
2021/12/21 07:34:55;;;;;;;28.27;13.37;;;;;;;-2.22;86.31;102669.22;5059114;28;20535;-60
2021/12/21 07:37:21;;;;;;;31.43;12.23;;;;;;;-2.17;86.43;102679.47;5055894;28;20082;-60
2021/12/21 07:39:46;;;;;;;26.43;11.90;;;;;;;-2.19;86.56;102676.91;5062859;28;20518;-60
2021/12/21 07:42:11;;;;;;;27.60;13.27;;;;;;;-2.17;86.70;102678.63;5059909;28;20145;-61
2021/12/21 07:44:36;;;;;;;23.67;12.40;;;;;;;-2.15;86.48;102671.63;5064423;28;20035;-60
2021/12/21 07:47:02;;;;;;;26.83;12.90;;;;;;;-2.16;86.47;102678.59;5055584;28;20047;-60
2021/12/21 07:49:27;;;;;;;31.97;14.10;;;;;;;-2.16;86.56;102691.59;5055032;28;20029;-60
2021/12/21 07:51:53;;;;;;;23.80;12.83;;;;;;;-2.21;86.51;102686.53;5061274;28;20025;-60
2021/12/21 07:54:18;;;;;;;28.83;13.30;;;;;;;-2.21;86.49;102683.91;5049420;28;20051;-60
2021/12/21 07:56:44;;;;;;;30.93;13.63;;;;;;;-2.18;86.41;102690.78;5051582;28;20163;-61
2021/12/21 07:59:11;;;;;;;30.30;12.77;;;;;;;-2.17;86.68;102687.28;5061363;28;20025;-60
2021/12/21 08:01:40;;;;;;;24.70;12.43;;;;;;;-2.17;86.66;102689.88;5064526;28;20036;-60
2021/12/21 08:04:07;;;;;;;30.65;13.65;;;;;;;-2.14;86.94;102694.16;5055563;28;20028;-61
2021/12/21 08:06:34;;;;;;;27.33;13.03;;;;;;;-2.14;86.76;102688.94;5054317;28;20032;-60
2021/12/21 08:09:01;;;;;;;32.03;14.17;;;;;;;-2.14;86.90;102686.34;5062111;28;20028;-60
2021/12/21 08:14:02;;;;;;;32.47;14.53;;;;;;;-2.15;86.98;102674.22;5055416;28;20028;-60
2021/12/21 08:16:28;;;;;;;31.90;13.70;;;;;;;-2.15;87.00;102679.44;5056492;28;20453;-60
2021/12/21 08:18:53;;;;;;;31.07;13.73;;;;;;;-2.17;87.17;102684.69;5058598;28;20079;-60
2021/12/21 08:21:19;;;;;;;29.40;13.13;;;;;;;-2.19;87.08;102687.34;5057005;28;20504;-60
2021/12/21 08:23:45;;;;;;;24.80;12.47;;;;;;;-2.17;87.16;102694.25;5059135;28;20032;-60
2021/12/21 08:26:12;;;;;;;35.90;13.53;;;;;;;-2.17;87.22;102697.69;5053346;28;20029;-60
2021/12/21 08:28:37;;;;;;;27.27;14.13;;;;;;;-2.14;87.21;102688.94;5053829;28;20095;-60
2021/12/21 08:31:03;;;;;;;27.90;14.43;;;;;;;-2.08;87.33;102688.75;5060007;28;20029;-60
2021/12/21 08:33:28;;;;;;;32.63;15.10;;;;;;;-2.04;87.41;102688.63;5036510;28;20024;-60
2021/12/21 08:35:53;;;;;;;29.20;14.63;;;;;;;-1.98;87.51;102693.69;5060737;28;20506;-60
2021/12/21 08:38:20;;;;;;;35.43;15.33;;;;;;;-1.90;87.53;102693.44;5069277;28;20055;-60
2021/12/21 08:40:49;;;;;;;32.40;14.53;;;;;;;-1.82;87.58;102694.06;5062984;28;20029;-60
2021/12/21 08:43:19;;;;;;;;;;;;;;;-1.67;87.71;102690.16;5060950;28;20032;-60
2021/12/21 08:45:47;;;;;;;35.43;20.33;;;;;;;-1.54;87.84;102693.25;5061244;28;20310;-60
2021/12/21 08:48:14;;;;;;;29.37;15.50;;;;;;;-1.40;87.85;102701.50;5061800;28;20029;-60
2021/12/21 08:50:40;;;;;;;34.60;15.23;;;;;;;-1.25;87.87;102703.59;5066644;28;20027;-60
2021/12/21 08:53:05;;;;;;;32.47;15.57;;;;;;;-1.13;87.83;102703.22;5063342;28;20013;-60
2021/12/21 08:55:31;;;;;;;36.27;16.87;;;;;;;-0.96;87.80;102706.13;5063192;28;20403;-60
2021/12/21 08:57:57;;;;;;;35.27;17.00;;;;;;;-0.76;88.20;102717.66;5054450;28;20112;-60
2021/12/21 09:00:22;;;;;;;33.67;16.23;;;;;;;-0.63;88.38;102716.31;5054156;28;20411;-60
2021/12/21 09:02:48;;;;;;;33.50;17.03;;;;;;;-0.50;88.31;102709.78;5067637;28;20031;-60
2021/12/21 09:05:18;;;;;;;33.00;16.27;;;;;;;-0.38;88.31;102709.34;5066795;28;20443;-60
2021/12/21 09:07:48;;;;;;;38.13;17.00;;;;;;;-0.30;88.23;102711.66;5055422;28;20032;-60
2021/12/21 09:10:15;;;;;;;33.75;16.42;;;;;;;-0.17;87.95;102709.50;5059572;28;20025;-60
2021/12/21 09:12:40;;;;;;;30.77;15.97;;;;;;;-0.10;87.80;102713.56;5061197;28;20082;-60
2021/12/21 09:15:07;;;;;;;35.30;16.47;;;;;;;-0.02;87.55;102706.31;5066470;28;20028;-60
2021/12/21 09:17:33;;;;;;;35.30;16.87;;;;;;;0.07;87.19;102708.59;5058644;28;20032;-60
2021/12/21 09:19:58;;;;;;;34.17;16.70;;;;;;;0.15;87.02;102709.16;5060544;28;20086;-60
2021/12/21 09:22:24;;;;;;;40.60;17.83;;;;;;;0.25;86.84;102709.66;5060334;28;20036;-60
2021/12/21 09:24:49;;;;;;;35.77;17.73;;;;;;;0.33;86.67;102710.22;5062246;28;20033;-60
2021/12/21 09:27:16;;;;;;;37.53;16.93;;;;;;;0.37;86.58;102706.59;5034013;28;20024;-60
2021/12/21 09:29:41;;;;;;;34.47;15.93;;;;;;;0.38;86.52;102699.59;5052955;28;20017;-58
2021/12/21 09:32:08;;;;;;;33.40;17.30;;;;;;;0.38;86.23;102695.22;5052819;28;20094;-58
2021/12/21 09:34:34;;;;;;;34.00;17.47;;;;;;;0.43;86.10;102698.50;5053681;28;20519;-58
2021/12/21 09:36:59;;;;;;;33.23;17.03;;;;;;;0.47;85.88;102696.63;5053823;28;20032;-59
2021/12/21 09:39:25;;;;;;;37.30;17.30;;;;;;;0.50;85.93;102696.50;5060943;28;20056;-59
2021/12/21 09:41:50;;;;;;;37.73;18.00;;;;;;;0.52;85.97;102692.91;5054647;28;20033;-59
2021/12/21 09:44:16;;;;;;;36.53;17.97;;;;;;;0.55;85.80;102686.69;5061341;28;20028;-58
2021/12/21 09:46:41;;;;;;;36.00;17.40;;;;;;;0.55;85.67;102686.69;5072730;28;20455;-58
2021/12/21 09:49:07;;;;;;;39.37;17.90;;;;;;;0.56;85.42;102686.63;5052338;28;20029;-59
2021/12/21 09:51:32;;;;;;;39.13;17.83;;;;;;;0.61;85.40;102686.47;5056918;28;20552;-58
2021/12/21 09:53:57;;;;;;;37.20;17.83;;;;;;;0.66;85.30;102697.59;5059127;28;20121;-59
2021/12/21 09:56:23;;;;;;;34.67;17.67;;;;;;;0.69;85.06;102686.16;5057171;28;20035;-59
2021/12/21 09:58:48;;;;;;;34.33;16.80;;;;;;;0.68;84.95;102687.09;5054635;28;20108;-59
2021/12/21 10:01:16;;;;;;;30.30;16.60;;;;;;;0.70;84.93;102690.50;5058484;28;20020;-58
2021/12/21 10:03:42;;;;;;;35.63;18.33;;;;;;;0.70;84.97;102685.25;5056832;28;20108;-59
2021/12/21 10:06:12;;;;;;;35.30;19.17;;;;;;;0.69;85.06;102692.25;5055230;28;20655;-59
2021/12/21 10:08:39;;;;;;;36.30;18.67;;;;;;;0.68;84.92;102694.94;5054508;28;20017;-59
2021/12/21 10:11:06;;;;;;;35.80;18.80;;;;;;;0.67;85.00;102688.84;5065082;28;20033;-58
2021/12/21 10:13:35;;;;;;;35.20;18.30;;;;;;;0.68;85.20;102685.31;5059920;28;20028;-59
2021/12/21 10:16:03;;;;;;;36.53;19.57;;;;;;;0.70;85.12;102673.03;5054383;28;20088;-59
2021/12/21 10:18:35;;;;;;;42.27;19.93;;;;;;;0.74;85.35;102666.75;5057696;28;20012;-59
2021/12/21 10:21:03;;;;;;;38.10;19.43;;;;;;;0.74;85.27;102666.75;5055363;28;20453;-59
2021/12/21 10:23:38;;;;;;;32.83;18.33;;;;;;;0.76;85.02;102664.94;5060005;28;20034;-58
2021/12/21 10:26:10;;;;;;;32.07;16.80;;;;;;;0.78;84.78;102664.88;5056625;28;20024;-59
2021/12/21 10:28:47;;;;;;;33.63;16.17;;;;;;;0.79;84.56;102670.03;5064084;28;20464;-58
2021/12/21 10:31:25;;;;;;;37.27;15.97;;;;;;;0.82;84.38;102669.91;5056823;28;20071;-59
2021/12/21 10:33:51;;;;;;;30.23;15.27;;;;;;;0.83;84.10;102666.38;5057013;28;20021;-59
2021/12/21 10:36:17;;;;;;;28.63;14.50;;;;;;;0.84;83.91;102668.06;5051930;28;20082;-59
2021/12/21 10:38:50;;;;;;;30.13;14.73;;;;;;;0.85;83.37;102668.94;5056500;28;20032;-59
2021/12/21 10:41:20;;;;;;;28.73;14.83;;;;;;;0.85;83.28;102664.56;5063072;28;20016;-59
2021/12/21 10:43:59;;;;;;;29.45;14.68;;;;;;;0.90;83.17;102662.63;5056825;28;20472;-59
2021/12/21 10:46:29;;;;;;;28.48;13.73;;;;;;;0.95;82.96;102662.44;5060158;28;20090;-59
2021/12/21 10:49:06;;;;;;;28.30;14.00;;;;;;;1.00;82.65;102670.94;5052467;28;20419;-59
2021/12/21 10:51:31;;;;;;;37.60;17.47;;;;;;;1.02;83.04;102670.88;5054347;28;20107;-59
2021/12/21 10:53:57;;;;;;;27.53;13.73;;;;;;;1.04;82.82;102669.88;5062860;28;20024;-59
2021/12/21 10:56:22;;;;;;;32.07;17.10;;;;;;;1.07;83.22;102661.91;5055995;28;20056;-59
2021/12/21 10:58:47;;;;;;;33.77;18.87;;;;;;;1.12;83.32;102666.94;5059503;28;20028;-59
2021/12/21 11:01:19;;;;;;;33.23;18.77;;;;;;;1.16;83.22;102666.75;5057171;28;20013;-59
2021/12/21 11:03:52;;;;;;;40.27;18.70;;;;;;;1.20;83.48;102664.88;5061698;28;20218;-59
2021/12/21 11:06:26;;;;;;;34.97;16.97;;;;;;;1.26;83.28;102672.44;5053812;28;20021;-59
2021/12/21 11:08:54;;;;;;;27.43;15.43;;;;;;;1.28;83.17;102662.75;5049862;28;20442;-59
2021/12/21 11:11:33;;;;;;;35.00;16.40;;;;;;;1.34;83.31;102661.66;5051374;28;20491;-59
2021/12/21 11:14:03;;;;;;;30.08;15.70;;;;;;;1.37;83.02;102651.88;5053052;28;20017;-59
2021/12/21 11:16:44;;;;;;;26.30;15.33;;;;;;;1.44;82.91;102653.31;5053001;28;20060;-59
2021/12/21 11:19:20;;;;;;;23.80;14.30;;;;;;;1.45;82.84;102643.72;5052443;28;20035;-59
2021/12/21 11:21:47;;;;;;;34.13;15.53;;;;;;;1.50;82.64;102639.13;5061121;28;20031;-59
2021/12/21 11:24:19;;;;;;;35.17;17.40;;;;;;;1.54;82.63;102624.97;5060296;28;20039;-59
2021/12/21 11:26:47;;;;;;;32.03;16.80;;;;;;;1.60;82.86;102618.59;5060992;28;20506;-59
2021/12/21 11:29:15;;;;;;;35.27;15.60;;;;;;;1.63;82.91;102610.63;5057269;28;20307;-59
2021/12/21 11:31:46;;;;;;;31.03;16.40;;;;;;;1.66;82.72;102613.09;5058310;28;20035;-59
2021/12/21 11:34:15;;;;;;;25.23;13.67;;;;;;;1.72;82.74;102610.19;5055237;28;20025;-59
2021/12/21 11:39:33;;;;;;;30.43;13.43;;;;;;;1.81;81.85;102601.94;5055181;28;20392;-59
2021/12/21 11:42:01;;;;;;;25.63;12.83;;;;;;;1.81;81.59;102596.69;5054755;28;20051;-59
2021/12/21 11:44:54;;;;;;;28.57;11.87;;;;;;;1.90;81.30;102604.13;5069672;28;20415;-59
2021/12/21 11:47:47;;;;;;;21.97;10.90;;;;;;;2.00;80.70;102599.28;5054759;28;20095;-59
2021/12/21 11:50:14;;;;;;;23.00;11.57;;;;;;;2.06;80.67;102592.00;5055653;28;20028;-59
2021/12/21 11:52:52;;;;;;;21.63;10.93;;;;;;;2.19;80.25;102597.50;5056819;28;20064;-59
2021/12/21 11:55:21;;;;;;;22.70;10.90;;;;;;;2.33;79.95;102602.09;5056880;28;20469;-59
2021/12/21 11:57:57;;;;;;;26.25;10.80;;;;;;;2.52;79.35;102591.53;5050655;28;20357;-59
2021/12/21 12:00:29;;;;;;;21.53;9.73;;;;;;;2.67;79.02;102598.66;5063752;28;20059;-59
2021/12/21 12:03:06;;;;;;;20.20;9.60;;;;;;;2.86;78.61;102594.19;5039116;28;20444;-59
2021/12/21 12:05:34;;;;;;;20.30;9.53;;;;;;;3.03;78.35;102593.31;5049219;28;20172;-59
2021/12/21 12:08:04;;;;;;;17.17;8.43;;;;;;;3.20;77.60;102595.09;5049253;28;20438;-61
2021/12/21 12:10:30;;;;;;;16.40;8.93;;;;;;;3.36;77.13;102591.56;5050096;28;20032;-61
2021/12/21 12:13:09;;;;;;;18.27;8.97;;;;;;;3.46;76.59;102583.19;5051852;28;20050;-61
2021/12/21 12:15:46;;;;;;;19.37;8.33;;;;;;;3.53;76.15;102587.22;5055928;28;20071;-61